Time,TemperatureF,DewpointF,PressureIn,WindDirection,WindDirectionDegrees,WindSpeedMPH,WindSpeedGustMPH,Humidity,HourlyPrecipIn,Conditions,Clouds,dailyrainin,SoftwareType,DateUTC
2013-07-16 00:05:00,72.8,72.2,30.24,North,360,0.0,0.0,98,0.00,,,0.00,Wunderground v.1.15,2013-07-16 04:05:00,
2013-07-16 00:10:00,72.7,72.1,30.23,North,360,0.0,0.0,98,0.00,,,0.00,Wunderground v.1.15,2013-07-16 04:10:00,
2013-07-16 00:15:00,72.6,72.0,30.24,North,360,0.0,0.0,98,0.00,,,0.00,Wunderground v.1.15,2013-07-16 04:15:00,
2013-07-16 00:20:00,72.4,71.8,30.24,North,360,0.0,0.0,98,0.00,,,0.00,Wunderground v.1.15,2013-07-16 04:20:00,
2013-07-16 00:25:00,72.4,71.8,30.24,North,360,0.0,0.0,98,0.00,,,0.00,Wunderground v.1.15,2013-07-16 04:25:00,
2013-07-16 00:30:00,72.2,71.6,30.24,North,360,0.0,0.0,98,0.00,,,0.00,Wunderground v.1.15,2013-07-16 04:30:00,
2013-07-16 00:35:00,72.1,71.5,30.24,North,360,0.0,0.0,98,0.00,,,0.00,Wunderground v.1.15,2013-07-16 04:35:00,
2013-07-16 00:45:00,71.9,71.6,30.24,North,360,0.0,0.0,99,0.00,,,0.00,Wunderground v.1.15,2013-07-16 04:45:00,
2013-07-16 00:50:00,71.7,71.4,30.24,North,360,0.0,0.0,99,0.00,,,0.00,Wunderground v.1.15,2013-07-16 04:50:00,
2013-07-16 00:55:00,71.6,71.0,30.24,North,360,0.0,0.0,98,0.00,,,0.00,Wunderground v.1.15,2013-07-16 04:55:00,
2013-07-16 01:05:00,71.4,70.8,30.24,North,360,0.0,0.0,98,0.00,,,0.00,Wunderground v.1.15,2013-07-16 05:05:00,
2013-07-16 01:10:00,71.4,71.1,30.24,North,360,0.0,0.0,99,0.00,,,0.00,Wunderground v.1.15,2013-07-16 05:10:00,
2013-07-16 01:15:00,71.4,71.1,30.24,North,360,0.0,0.0,99,0.00,,,0.00,Wunderground v.1.15,2013-07-16 05:15:00,
2013-07-16 01:25:00,71.2,70.9,30.24,North,360,0.0,0.0,99,0.00,,,0.00,Wunderground v.1.15,2013-07-16 05:25:00,
2013-07-16 01:30:00,71.1,70.8,30.24,North,360,0.0,0.0,99,0.00,,,0.00,Wunderground v.1.15,2013-07-16 05:30:00,
2013-07-16 01:40:00,71.0,70.7,30.24,North,360,0.0,0.0,99,0.00,,,0.00,Wunderground v.1.15,2013-07-16 05:40:00,
2013-07-16 01:45:00,70.9,70.6,30.24,North,360,0.0,0.0,99,0.00,,,0.00,Wunderground v.1.15,2013-07-16 05:45:00,
2013-07-16 01:50:00,70.8,70.5,30.24,North,360,0.0,0.0,99,0.00,,,0.00,Wunderground v.1.15,2013-07-16 05:50:00,
2013-07-16 01:55:00,70.7,70.4,30.24,North,360,0.0,0.0,99,0.00,,,0.00,Wunderground v.1.15,2013-07-16 05:55:00,
2013-07-16 02:05:00,70.6,70.3,30.24,North,360,0.0,0.0,99,0.00,,,0.00,Wunderground v.1.15,2013-07-16 06:05:00,
2013-07-16 02:10:00,70.6,70.3,30.24,North,360,0.0,0.0,99,0.00,,,0.00,Wunderground v.1.15,2013-07-16 06:10:00,
2013-07-16 02:15:00,70.5,70.2,30.24,North,360,0.0,0.0,99,0.00,,,0.00,Wunderground v.1.15,2013-07-16 06:15:00,
2013-07-16 02:25:00,70.4,70.1,30.24,North,360,0.0,0.0,99,0.00,,,0.00,Wunderground v.1.15,2013-07-16 06:25:00,
2013-07-16 02:30:00,70.3,70.0,30.23,North,360,0.0,0.0,99,0.00,,,0.00,Wunderground v.1.15,2013-07-16 06:30:00,
2013-07-16 02:35:00,70.2,69.9,30.24,North,360,0.0,0.0,99,0.00,,,0.00,Wunderground v.1.15,2013-07-16 06:35:00,
2013-07-16 02:45:00,70.0,69.7,30.23,North,360,0.0,0.0,99,0.00,,,0.00,Wunderground v.1.15,2013-07-16 06:45:00,
2013-07-16 02:50:00,69.9,69.6,30.23,North,360,0.0,0.0,99,0.00,,,0.00,Wunderground v.1.15,2013-07-16 06:50:00,
2013-07-16 02:55:00,69.9,69.6,30.23,North,360,0.0,0.0,99,0.00,,,0.00,Wunderground v.1.15,2013-07-16 06:55:00,
2013-07-16 03:05:00,69.7,69.4,30.23,North,360,0.0,0.0,99,0.00,,,0.00,Wunderground v.1.15,2013-07-16 07:05:00,
2013-07-16 03:10:00,69.5,69.2,30.24,North,360,0.0,0.0,99,0.00,,,0.00,Wunderground v.1.15,2013-07-16 07:10:00,
2013-07-16 03:20:00,69.2,68.9,30.24,North,360,0.0,0.0,99,0.00,,,0.00,Wunderground v.1.15,2013-07-16 07:20:00,
2013-07-16 03:25:00,69.2,68.9,30.24,North,360,0.0,0.0,99,0.00,,,0.00,Wunderground v.1.15,2013-07-16 07:25:00,
2013-07-16 03:30:00,69.3,69.3,30.24,North,360,0.0,0.0,100,0.00,,,0.00,Wunderground v.1.15,2013-07-16 07:30:00,
2013-07-16 03:35:00,69.4,69.4,30.23,North,360,0.0,0.0,100,0.00,,,0.00,Wunderground v.1.15,2013-07-16 07:35:00,
2013-07-16 03:45:00,69.5,69.5,30.23,North,360,0.0,0.0,100,0.00,,,0.00,Wunderground v.1.15,2013-07-16 07:45:00,
2013-07-16 03:50:00,69.5,69.5,30.23,North,360,0.0,0.0,100,0.00,,,0.00,Wunderground v.1.15,2013-07-16 07:50:00,
2013-07-16 04:00:00,69.5,69.5,30.23,North,360,0.0,0.0,100,0.00,,,0.00,Wunderground v.1.15,2013-07-16 08:00:00,
2013-07-16 04:05:00,69.5,69.5,30.23,North,360,0.0,0.0,100,0.00,,,0.00,Wunderground v.1.15,2013-07-16 08:05:00,
2013-07-16 04:10:00,69.6,69.6,30.23,North,360,0.0,0.0,100,0.00,,,0.00,Wunderground v.1.15,2013-07-16 08:10:00,
2013-07-16 04:20:00,69.5,69.5,30.23,North,360,0.0,0.0,100,0.00,,,0.00,Wunderground v.1.15,2013-07-16 08:20:00,
2013-07-16 04:25:00,69.5,69.5,30.23,North,360,0.0,0.0,100,0.00,,,0.00,Wunderground v.1.15,2013-07-16 08:25:00,
2013-07-16 04:30:00,69.4,69.4,30.23,North,360,0.0,0.0,100,0.00,,,0.00,Wunderground v.1.15,2013-07-16 08:30:00,
2013-07-16 04:40:00,69.4,69.4,30.23,North,360,0.0,0.0,100,0.00,,,0.00,Wunderground v.1.15,2013-07-16 08:40:00,
2013-07-16 04:45:00,69.3,69.3,30.23,North,360,0.0,0.0,100,0.00,,,0.00,Wunderground v.1.15,2013-07-16 08:45:00,
2013-07-16 04:50:00,69.2,69.2,30.23,North,360,0.0,0.0,100,0.00,,,0.00,Wunderground v.1.15,2013-07-16 08:50:00,
2013-07-16 05:00:00,69.1,69.1,30.23,North,360,0.0,0.0,100,0.00,,,0.00,Wunderground v.1.15,2013-07-16 09:00:00,
2013-07-16 05:05:00,69.1,69.1,30.23,North,360,0.0,0.0,100,0.00,,,0.00,Wunderground v.1.15,2013-07-16 09:05:00,
2013-07-16 05:10:00,69.0,69.0,30.23,North,360,0.0,0.0,100,0.00,,,0.00,Wunderground v.1.15,2013-07-16 09:10:00,
2013-07-16 05:20:00,68.9,68.9,30.23,North,360,0.0,0.0,100,0.00,,,0.00,Wunderground v.1.15,2013-07-16 09:20:00,
2013-07-16 05:25:00,68.8,68.8,30.23,North,360,0.0,0.0,100,0.00,,,0.00,Wunderground v.1.15,2013-07-16 09:25:00,
2013-07-16 05:30:00,68.7,68.7,30.23,North,360,0.0,0.0,100,0.00,,,0.00,Wunderground v.1.15,2013-07-16 09:30:00,
2013-07-16 05:40:00,68.6,68.6,30.23,North,360,0.0,0.0,100,0.00,,,0.00,Wunderground v.1.15,2013-07-16 09:40:00,
2013-07-16 05:45:00,68.5,68.5,30.23,North,360,0.0,0.0,100,0.00,,,0.00,Wunderground v.1.15,2013-07-16 09:45:00,
2013-07-16 05:50:00,68.5,68.5,30.23,North,360,0.0,0.0,100,0.00,,,0.00,Wunderground v.1.15,2013-07-16 09:50:00,
2013-07-16 06:00:00,68.5,68.5,30.23,North,360,0.0,0.0,100,0.00,,,0.00,Wunderground v.1.15,2013-07-16 10:00:00,
2013-07-16 06:05:00,68.4,68.4,30.24,North,360,0.0,0.0,100,0.00,,,0.00,Wunderground v.1.15,2013-07-16 10:05:00,
2013-07-16 06:10:00,68.4,68.4,30.24,North,360,0.0,0.0,100,0.00,,,0.00,Wunderground v.1.15,2013-07-16 10:10:00,
2013-07-16 06:20:00,68.3,68.3,30.24,North,360,0.0,0.0,100,0.00,,,0.00,Wunderground v.1.15,2013-07-16 10:20:00,
2013-07-16 06:25:00,68.2,68.2,30.24,North,360,0.0,0.0,100,0.00,,,0.00,Wunderground v.1.15,2013-07-16 10:25:00,
2013-07-16 06:30:00,68.2,68.2,30.24,North,360,0.0,0.0,100,0.00,,,0.00,Wunderground v.1.15,2013-07-16 10:30:00,
2013-07-16 06:40:00,68.2,68.2,30.24,North,360,0.0,0.0,100,0.00,,,0.00,Wunderground v.1.15,2013-07-16 10:40:00,
2013-07-16 06:45:00,68.2,68.2,30.24,North,360,0.0,0.0,100,0.00,,,0.00,Wunderground v.1.15,2013-07-16 10:45:00,
2013-07-16 06:50:00,68.2,68.2,30.24,North,360,0.0,0.0,100,0.00,,,0.00,Wunderground v.1.15,2013-07-16 10:50:00,
2013-07-16 07:00:00,68.1,68.1,30.24,North,360,0.0,0.0,100,0.00,,,0.00,Wunderground v.1.15,2013-07-16 11:00:00,
2013-07-16 07:05:00,68.2,68.2,30.23,WSW,246,0.0,0.0,100,0.00,,,0.00,Wunderground v.1.15,2013-07-16 11:05:00,
2013-07-16 07:15:00,68.4,68.4,30.24,WSW,247,0.0,0.0,100,0.00,,,0.00,Wunderground v.1.15,2013-07-16 11:15:00,
2013-07-16 07:20:00,68.6,68.6,30.24,WSW,247,0.0,0.0,100,0.00,,,0.00,Wunderground v.1.15,2013-07-16 11:20:00,
2013-07-16 07:25:00,68.7,68.7,30.24,WSW,247,0.0,0.0,100,0.00,,,0.00,Wunderground v.1.15,2013-07-16 11:25:00,
2013-07-16 07:30:00,68.8,68.8,30.24,WSW,247,0.0,0.0,100,0.00,,,0.00,Wunderground v.1.15,2013-07-16 11:30:00,
2013-07-16 07:40:00,69.1,69.1,30.24,WSW,246,0.0,0.0,100,0.00,,,0.00,Wunderground v.1.15,2013-07-16 11:40:00,
2013-07-16 07:45:00,69.2,69.2,30.25,WSW,247,0.0,0.0,100,0.00,,,0.00,Wunderground v.1.15,2013-07-16 11:45:00,
2013-07-16 07:50:00,69.3,69.3,30.25,WSW,247,0.0,0.0,100,0.00,,,0.00,Wunderground v.1.15,2013-07-16 11:50:00,
2013-07-16 08:00:00,69.6,69.6,30.25,WSW,247,0.0,0.0,100,0.00,,,0.00,Wunderground v.1.15,2013-07-16 12:00:00,
2013-07-16 08:05:00,70.0,70.0,30.24,WSW,247,0.0,0.0,100,0.00,,,0.00,Wunderground v.1.15,2013-07-16 12:05:00,
2013-07-16 08:10:00,70.2,70.2,30.24,WSW,246,0.0,0.0,100,0.00,,,0.00,Wunderground v.1.15,2013-07-16 12:10:00,
2013-07-16 08:20:00,70.6,70.6,30.24,WSW,247,0.0,0.0,100,0.00,,,0.00,Wunderground v.1.15,2013-07-16 12:20:00,
2013-07-16 08:25:00,71.1,71.1,30.25,WSW,247,0.0,0.0,100,0.00,,,0.00,Wunderground v.1.15,2013-07-16 12:25:00,
2013-07-16 08:30:00,71.9,71.9,30.25,WSW,246,0.0,0.0,100,0.00,,,0.00,Wunderground v.1.15,2013-07-16 12:30:00,
2013-07-16 08:40:00,73.5,73.5,30.25,WSW,246,0.0,0.0,100,0.00,,,0.00,Wunderground v.1.15,2013-07-16 12:40:00,
2013-07-16 08:45:00,74.6,74.6,30.25,WSW,246,0.0,0.0,100,0.00,,,0.00,Wunderground v.1.15,2013-07-16 12:45:00,
2013-07-16 08:55:00,75.6,75.6,30.25,ESE,123,0.0,0.0,100,0.00,,,0.00,Wunderground v.1.15,2013-07-16 12:55:00,
2013-07-16 09:00:00,75.7,75.7,30.24,ESE,123,0.0,0.0,100,0.00,,,0.00,Wunderground v.1.15,2013-07-16 13:00:00,
2013-07-16 09:05:00,76.0,76.0,30.25,ENE,59,0.0,0.0,100,0.00,,,0.00,Wunderground v.1.15,2013-07-16 13:05:00,
2013-07-16 09:10:00,76.5,76.5,30.25,ENE,59,0.0,1.0,100,0.00,,,0.00,Wunderground v.1.15,2013-07-16 13:10:00,
2013-07-16 09:20:00,77.7,76.2,30.24,NNE,13,0.0,0.0,95,0.00,,,0.00,Wunderground v.1.15,2013-07-16 13:20:00,
2013-07-16 09:25:00,78.2,76.6,30.24,NNE,19,0.0,0.0,95,0.00,,,0.00,Wunderground v.1.15,2013-07-16 13:25:00,
2013-07-16 09:35:00,78.9,75.7,30.24,ESE,115,0.0,0.0,90,0.00,,,0.00,Wunderground v.1.15,2013-07-16 13:35:00,
2013-07-16 09:40:00,79.3,75.8,30.24,ESE,115,0.0,0.0,89,0.00,,,0.00,Wunderground v.1.15,2013-07-16 13:40:00,
2013-07-16 09:45:00,79.7,76.2,30.24,North,10,0.0,0.0,89,0.00,,,0.00,Wunderground v.1.15,2013-07-16 13:45:00,
2013-07-16 09:50:00,80.0,75.8,30.24,North,10,0.0,0.0,87,0.00,,,0.00,Wunderground v.1.15,2013-07-16 13:50:00,
2013-07-16 10:00:00,80.4,75.8,30.24,North,10,0.0,1.0,86,0.00,,,0.00,Wunderground v.1.15,2013-07-16 14:00:00,
2013-07-16 10:05:00,80.7,74.7,30.24,North,10,0.0,1.0,82,0.00,,,0.00,Wunderground v.1.15,2013-07-16 14:05:00,
2013-07-16 10:15:00,82.2,75.4,30.24,North,10,1.0,2.0,80,0.00,,,0.00,Wunderground v.1.15,2013-07-16 14:15:00,
2013-07-16 10:20:00,82.6,75.8,30.24,North,10,1.0,1.0,80,0.00,,,0.00,Wunderground v.1.15,2013-07-16 14:20:00,
2013-07-16 10:25:00,83.0,75.8,30.24,ENE,66,0.0,1.0,79,0.00,,,0.00,Wunderground v.1.15,2013-07-16 14:25:00,
2013-07-16 10:35:00,84.0,76.0,30.24,ENE,66,1.0,1.0,77,0.00,,,0.00,Wunderground v.1.15,2013-07-16 14:35:00,
2013-07-16 10:40:00,84.5,76.5,30.24,NNW,344,1.0,1.0,77,0.00,,,0.00,Wunderground v.1.15,2013-07-16 14:40:00,
2013-07-16 10:45:00,85.0,75.4,30.24,NW,305,1.0,1.0,73,0.00,,,0.00,Wunderground v.1.15,2013-07-16 14:45:00,
2013-07-16 10:55:00,85.5,75.9,30.23,NNE,30,1.0,2.0,73,0.00,,,0.00,Wunderground v.1.15,2013-07-16 14:55:00,
2013-07-16 11:00:00,85.7,76.0,30.23,NNE,30,1.0,2.0,73,0.00,,,0.00,Wunderground v.1.15,2013-07-16 15:00:00,
2013-07-16 11:05:00,85.9,75.8,30.23,SE,145,1.0,2.0,72,0.00,,,0.00,Wunderground v.1.15,2013-07-16 15:05:00,
2013-07-16 11:15:00,86.3,75.4,30.23,NNW,348,1.0,1.0,70,0.00,,,0.00,Wunderground v.1.15,2013-07-16 15:15:00,
2013-07-16 11:20:00,86.7,76.6,30.23,North,349,1.0,2.0,72,0.00,,,0.00,Wunderground v.1.15,2013-07-16 15:20:00,
2013-07-16 11:25:00,86.8,76.3,30.23,NE,48,1.0,2.0,71,0.00,,,0.00,Wunderground v.1.15,2013-07-16 15:25:00,
2013-07-16 11:35:00,87.2,77.1,30.23,East,80,1.0,2.0,72,0.00,,,0.00,Wunderground v.1.15,2013-07-16 15:35:00,
2013-07-16 11:40:00,87.3,77.2,30.23,South,182,1.0,1.0,72,0.00,,,0.00,Wunderground v.1.15,2013-07-16 15:40:00,
2013-07-16 11:45:00,87.3,77.6,30.23,SE,142,0.0,1.0,73,0.00,,,0.00,Wunderground v.1.15,2013-07-16 15:45:00,
2013-07-16 11:55:00,87.4,78.5,30.23,SE,138,0.0,1.0,75,0.00,,,0.00,Wunderground v.1.15,2013-07-16 15:55:00,
2013-07-16 12:00:00,87.3,76.3,30.23,SE,136,0.0,2.0,70,0.00,,,0.00,Wunderground v.1.15,2013-07-16 16:00:00,
2013-07-16 12:10:00,87.1,76.1,30.22,East,92,0.0,1.0,70,0.00,,,0.00,Wunderground v.1.15,2013-07-16 16:10:00,
2013-07-16 12:15:00,87.5,77.4,30.22,East,92,0.0,1.0,72,0.00,,,0.00,Wunderground v.1.15,2013-07-16 16:15:00,
2013-07-16 12:20:00,87.8,76.8,30.22,East,101,0.0,2.0,70,0.00,,,0.00,Wunderground v.1.15,2013-07-16 16:20:00,
2013-07-16 12:25:00,88.0,75.7,30.22,ESE,104,0.0,2.0,67,0.00,,,0.00,Wunderground v.1.15,2013-07-16 16:25:00,
2013-07-16 12:35:00,87.6,76.6,30.22,ESE,104,0.0,0.0,70,0.00,,,0.00,Wunderground v.1.15,2013-07-16 16:35:00,
2013-07-16 12:40:00,87.7,77.5,30.21,North,355,0.0,3.0,72,0.00,,,0.00,Wunderground v.1.15,2013-07-16 16:40:00,
2013-07-16 12:50:00,88.1,78.8,30.21,East,89,1.0,1.0,74,0.00,,,0.00,Wunderground v.1.15,2013-07-16 16:50:00,
2013-07-16 12:55:00,88.4,78.2,30.21,East,89,0.0,1.0,72,0.00,,,0.00,Wunderground v.1.15,2013-07-16 16:55:00,
2013-07-16 13:00:00,88.8,78.6,30.21,East,89,0.0,1.0,72,0.00,,,0.00,Wunderground v.1.15,2013-07-16 17:00:00,
2013-07-16 13:05:00,88.9,79.1,30.21,ESE,111,0.0,1.0,73,0.00,,,0.00,Wunderground v.1.15,2013-07-16 17:05:00,
2013-07-16 13:15:00,89.5,77.1,30.21,NNW,348,1.0,1.0,67,0.00,,,0.00,Wunderground v.1.15,2013-07-16 17:15:00,
2013-07-16 13:20:00,89.9,77.0,30.21,WSW,246,1.0,1.0,66,0.00,,,0.00,Wunderground v.1.15,2013-07-16 17:20:00,
2013-07-16 13:25:00,90.2,79.1,30.20,WSW,246,0.0,1.0,70,0.00,,,0.00,Wunderground v.1.15,2013-07-16 17:25:00,
2013-07-16 13:35:00,90.1,79.0,30.20,WSW,246,0.0,0.0,70,0.00,,,0.00,Wunderground v.1.15,2013-07-16 17:35:00,
2013-07-16 13:40:00,90.3,78.7,30.20,WSW,246,0.0,1.0,69,0.00,,,0.00,Wunderground v.1.15,2013-07-16 17:40:00,
2013-07-16 13:45:00,90.4,77.9,30.20,WSW,246,0.0,1.0,67,0.00,,,0.00,Wunderground v.1.15,2013-07-16 17:45:00,
2013-07-16 13:55:00,90.4,76.6,30.20,NE,41,1.0,1.0,64,0.00,,,0.00,Wunderground v.1.15,2013-07-16 17:55:00,
2013-07-16 14:00:00,90.5,77.6,30.19,NE,41,1.0,1.0,66,0.00,,,0.00,Wunderground v.1.15,2013-07-16 18:00:00,
2013-07-16 14:05:00,90.6,77.7,30.19,SE,132,1.0,1.0,66,0.00,,,0.00,Wunderground v.1.15,2013-07-16 18:05:00,
2013-07-16 14:10:00,90.8,76.5,30.19,NNE,19,0.0,1.0,63,0.00,,,0.00,Wunderground v.1.15,2013-07-16 18:10:00,
2013-07-16 14:20:00,91.3,78.3,30.18,WSW,246,1.0,1.0,66,0.00,,,0.00,Wunderground v.1.15,2013-07-16 18:20:00,
2013-07-16 14:25:00,90.8,78.8,30.18,WSW,246,0.0,1.0,68,0.00,,,0.00,Wunderground v.1.15,2013-07-16 18:25:00,
2013-07-16 14:35:00,91.3,78.3,30.18,NE,37,0.0,1.0,66,0.00,,,0.00,Wunderground v.1.15,2013-07-16 18:35:00,
2013-07-16 14:40:00,91.5,77.6,30.18,NE,37,0.0,0.0,64,0.00,,,0.00,Wunderground v.1.15,2013-07-16 18:40:00,
2013-07-16 14:45:00,92.0,79.9,30.18,NNW,339,0.0,1.0,68,0.00,,,0.00,Wunderground v.1.15,2013-07-16 18:45:00,
2013-07-16 14:50:00,92.2,82.3,30.18,NNW,339,0.0,0.0,73,0.00,,,0.00,Wunderground v.1.15,2013-07-16 18:50:00,
2013-07-16 15:00:00,92.1,78.2,30.17,NNW,331,1.0,1.0,64,0.00,,,0.00,Wunderground v.1.15,2013-07-16 19:00:00,
2013-07-16 15:05:00,92.4,78.9,30.17,NNW,331,0.0,1.0,65,0.00,,,0.00,Wunderground v.1.15,2013-07-16 19:05:00,
2013-07-16 15:15:00,92.6,79.1,30.17,NNE,27,1.0,1.0,65,0.00,,,0.00,Wunderground v.1.15,2013-07-16 19:15:00,
2013-07-16 15:20:00,92.4,76.5,30.17,NE,37,1.0,1.0,60,0.00,,,0.00,Wunderground v.1.15,2013-07-16 19:20:00,
2013-07-16 15:25:00,92.4,77.5,30.17,NE,37,1.0,1.0,62,0.00,,,0.00,Wunderground v.1.15,2013-07-16 19:25:00,
2013-07-16 15:35:00,91.7,80.5,30.17,NE,55,0.0,0.0,70,0.00,,,0.00,Wunderground v.1.15,2013-07-16 19:35:00,
2013-07-16 15:40:00,91.1,80.8,30.17,NE,55,0.0,0.0,72,0.00,,,0.00,Wunderground v.1.15,2013-07-16 19:40:00,
2013-07-16 15:45:00,91.2,80.5,30.16,NE,55,0.0,1.0,71,0.00,,,0.00,Wunderground v.1.15,2013-07-16 19:45:00,
2013-07-16 15:55:00,92.1,80.9,30.16,NW,325,1.0,1.0,70,0.00,,,0.00,Wunderground v.1.15,2013-07-16 19:55:00,
2013-07-16 16:00:00,91.8,79.7,30.16,NW,325,0.0,0.0,68,0.00,,,0.00,Wunderground v.1.15,2013-07-16 20:00:00,
2013-07-16 16:05:00,91.6,81.3,30.16,NNW,336,0.0,0.0,72,0.00,,,0.00,Wunderground v.1.15,2013-07-16 20:05:00,
2013-07-16 16:15:00,92.0,77.1,30.15,NNW,342,1.0,1.0,62,0.00,,,0.00,Wunderground v.1.15,2013-07-16 20:15:00,
2013-07-16 16:20:00,91.6,78.2,30.16,NNW,342,1.0,1.0,65,0.00,,,0.00,Wunderground v.1.15,2013-07-16 20:20:00,
2013-07-16 16:25:00,91.1,80.4,30.16,NNW,342,0.0,1.0,71,0.00,,,0.00,Wunderground v.1.15,2013-07-16 20:25:00,
2013-07-16 16:35:00,90.5,80.2,30.16,NNW,338,0.0,3.0,72,0.00,,,0.00,Wunderground v.1.15,2013-07-16 20:35:00,
2013-07-16 16:40:00,90.7,80.8,30.15,NNW,338,0.0,0.0,73,0.00,,,0.00,Wunderground v.1.15,2013-07-16 20:40:00,
2013-07-16 16:45:00,90.1,79.4,30.15,NNW,338,0.0,0.0,71,0.00,,,0.00,Wunderground v.1.15,2013-07-16 20:45:00,
2013-07-16 16:55:00,89.5,81.7,30.15,NNW,338,0.0,0.0,78,0.00,,,0.00,Wunderground v.1.15,2013-07-16 20:55:00,
2013-07-16 17:00:00,89.4,81.6,30.15,NNW,338,0.0,0.0,78,0.00,,,0.00,Wunderground v.1.15,2013-07-16 21:00:00,
2013-07-16 17:10:00,89.6,80.6,30.15,NNW,338,0.0,0.0,75,0.00,,,0.00,Wunderground v.1.15,2013-07-16 21:10:00,
2013-07-16 17:15:00,89.8,80.0,30.14,NNW,338,0.0,0.0,73,0.00,,,0.00,Wunderground v.1.15,2013-07-16 21:15:00,
2013-07-16 17:25:00,89.7,81.5,30.14,NNW,338,0.0,0.0,77,0.00,,,0.00,Wunderground v.1.15,2013-07-16 21:25:00,
2013-07-16 17:30:00,89.7,81.5,30.14,NNW,338,0.0,0.0,77,0.00,,,0.00,Wunderground v.1.15,2013-07-16 21:30:00,
2013-07-16 17:40:00,89.4,80.4,30.15,NNW,338,0.0,0.0,75,0.00,,,0.00,Wunderground v.1.15,2013-07-16 21:40:00,
2013-07-16 17:45:00,89.0,80.8,30.15,NNW,338,0.0,0.0,77,0.00,,,0.00,Wunderground v.1.15,2013-07-16 21:45:00,
2013-07-16 17:50:00,88.5,80.8,30.15,NNW,338,0.0,0.0,78,0.00,,,0.00,Wunderground v.1.15,2013-07-16 21:50:00,
2013-07-16 17:55:00,88.2,80.9,30.15,NNW,338,0.0,0.0,79,0.00,,,0.00,Wunderground v.1.15,2013-07-16 21:55:00,
2013-07-16 18:05:00,87.5,81.3,30.14,NNW,338,0.0,0.0,82,0.00,,,0.00,Wunderground v.1.15,2013-07-16 22:05:00,
2013-07-16 18:10:00,87.3,81.5,30.14,NNW,338,0.0,0.0,83,0.00,,,0.00,Wunderground v.1.15,2013-07-16 22:10:00,
2013-07-16 18:20:00,86.8,81.4,30.15,NNW,338,0.0,0.0,84,0.00,,,0.00,Wunderground v.1.15,2013-07-16 22:20:00,
2013-07-16 18:25:00,86.7,81.6,30.15,NNW,338,0.0,0.0,85,0.00,,,0.00,Wunderground v.1.15,2013-07-16 22:25:00,
2013-07-16 18:30:00,86.6,81.5,30.15,NNW,338,0.0,0.0,85,0.00,,,0.00,Wunderground v.1.15,2013-07-16 22:30:00,
2013-07-16 18:35:00,86.5,81.8,30.15,NNW,338,0.0,0.0,86,0.00,,,0.00,Wunderground v.1.15,2013-07-16 22:35:00,
2013-07-16 18:45:00,86.7,82.4,30.14,NNW,338,0.0,0.0,87,0.00,,,0.00,Wunderground v.1.15,2013-07-16 22:45:00,
2013-07-16 18:50:00,86.8,83.2,30.14,NNW,338,0.0,0.0,89,0.00,,,0.00,Wunderground v.1.15,2013-07-16 22:50:00,
2013-07-16 19:00:00,86.8,81.4,30.15,NNW,338,0.0,0.0,84,0.00,,,0.00,Wunderground v.1.15,2013-07-16 23:00:00,
2013-07-16 19:05:00,86.9,81.5,30.15,NNW,338,0.0,0.0,84,0.00,,,0.00,Wunderground v.1.15,2013-07-16 23:05:00,
2013-07-16 19:10:00,87.0,81.2,30.15,NNW,338,0.0,0.0,83,0.00,,,0.00,Wunderground v.1.15,2013-07-16 23:10:00,
2013-07-16 19:20:00,86.9,81.8,30.15,NNW,338,0.0,0.0,85,0.00,,,0.00,Wunderground v.1.15,2013-07-16 23:20:00,
2013-07-16 19:25:00,86.8,81.7,30.15,NNW,338,0.0,0.0,85,0.00,,,0.00,Wunderground v.1.15,2013-07-16 23:25:00,
2013-07-16 19:30:00,86.6,81.5,30.16,NNW,338,0.0,0.0,85,0.00,,,0.00,Wunderground v.1.15,2013-07-16 23:30:00,
2013-07-16 19:40:00,85.9,81.2,30.16,NNW,338,0.0,0.0,86,0.00,,,0.00,Wunderground v.1.15,2013-07-16 23:40:00,
2013-07-16 19:45:00,85.6,80.9,30.16,NNW,338,0.0,0.0,86,0.00,,,0.00,Wunderground v.1.15,2013-07-16 23:45:00,
2013-07-16 19:50:00,85.4,81.1,30.16,NNW,338,0.0,0.0,87,0.00,,,0.00,Wunderground v.1.15,2013-07-16 23:50:00,
2013-07-16 20:00:00,85.0,80.3,30.16,NW,315,0.0,0.0,86,0.00,,,0.00,Wunderground v.1.15,2013-07-17 00:00:00,
2013-07-16 20:05:00,84.7,79.0,30.16,NNE,28,0.0,0.0,83,0.00,,,0.00,Wunderground v.1.15,2013-07-17 00:05:00,
2013-07-16 20:10:00,84.5,78.8,30.16,NNE,28,0.0,0.0,83,0.00,,,0.00,Wunderground v.1.15,2013-07-17 00:10:00,
2013-07-16 20:20:00,84.1,77.6,30.16,NNE,28,0.0,0.0,81,0.00,,,0.00,Wunderground v.1.15,2013-07-17 00:20:00,
2013-07-16 20:25:00,83.9,77.1,30.17,NNE,28,0.0,0.0,80,0.00,,,0.00,Wunderground v.1.15,2013-07-17 00:25:00,
2013-07-16 20:30:00,83.7,78.7,30.17,NNE,28,0.0,0.0,85,0.00,,,0.00,Wunderground v.1.15,2013-07-17 00:30:00,
2013-07-16 20:40:00,82.8,75.6,30.17,North,355,1.0,1.0,79,0.00,,,0.00,Wunderground v.1.15,2013-07-17 00:40:00,
2013-07-16 20:45:00,82.7,78.1,30.17,North,355,1.0,1.0,86,0.00,,,0.00,Wunderground v.1.15,2013-07-17 00:45:00,
2013-07-16 20:50:00,82.2,77.9,30.17,North,355,0.0,0.0,87,0.00,,,0.00,Wunderground v.1.15,2013-07-17 00:50:00,
2013-07-16 21:00:00,80.9,76.0,30.16,North,355,0.0,0.0,85,0.00,,,0.00,Wunderground v.1.15,2013-07-17 01:00:00,
2013-07-16 21:05:00,80.3,75.4,30.17,North,355,0.0,0.0,85,0.00,,,0.00,Wunderground v.1.15,2013-07-17 01:05:00,
2013-07-16 21:10:00,79.6,75.7,30.17,North,355,0.0,0.0,88,0.00,,,0.00,Wunderground v.1.15,2013-07-17 01:10:00,
2013-07-16 21:20:00,78.8,74.9,30.17,North,355,0.0,0.0,88,0.00,,,0.00,Wunderground v.1.15,2013-07-17 01:20:00,
2013-07-16 21:25:00,78.6,74.7,30.17,North,355,0.0,0.0,88,0.00,,,0.00,Wunderground v.1.15,2013-07-17 01:25:00,
2013-07-16 21:30:00,78.4,74.5,30.17,North,355,0.0,0.0,88,0.00,,,0.00,Wunderground v.1.15,2013-07-17 01:30:00,
2013-07-16 21:40:00,78.1,74.6,30.17,North,355,0.0,0.0,89,0.00,,,0.00,Wunderground v.1.15,2013-07-17 01:40:00,
2013-07-16 21:45:00,77.9,74.4,30.17,North,355,0.0,0.0,89,0.00,,,0.00,Wunderground v.1.15,2013-07-17 01:45:00,
2013-07-16 21:50:00,77.7,74.9,30.18,North,355,0.0,0.0,91,0.00,,,0.00,Wunderground v.1.15,2013-07-17 01:50:00,
2013-07-16 22:00:00,77.3,74.8,30.18,North,355,0.0,0.0,92,0.00,,,0.00,Wunderground v.1.15,2013-07-17 02:00:00,
2013-07-16 22:05:00,77.2,74.7,30.18,North,355,0.0,0.0,92,0.00,,,0.00,Wunderground v.1.15,2013-07-17 02:05:00,
2013-07-16 22:10:00,77.2,74.7,30.18,North,355,0.0,0.0,92,0.00,,,0.00,Wunderground v.1.15,2013-07-17 02:10:00,
2013-07-16 22:20:00,76.9,74.4,30.18,North,355,0.0,0.0,92,0.00,,,0.00,Wunderground v.1.15,2013-07-17 02:20:00,
2013-07-16 22:25:00,76.9,74.7,30.18,North,355,0.0,0.0,93,0.00,,,0.00,Wunderground v.1.15,2013-07-17 02:25:00,
2013-07-16 22:30:00,76.9,74.7,30.18,North,355,0.0,0.0,93,0.00,,,0.00,Wunderground v.1.15,2013-07-17 02:30:00,
2013-07-16 22:40:00,76.8,74.6,30.18,North,355,0.0,0.0,93,0.00,,,0.00,Wunderground v.1.15,2013-07-17 02:40:00,
2013-07-16 22:45:00,76.7,74.5,30.18,North,355,0.0,0.0,93,0.00,,,0.00,Wunderground v.1.15,2013-07-17 02:45:00,
2013-07-16 22:50:00,76.6,74.7,30.18,North,355,0.0,0.0,94,0.00,,,0.00,Wunderground v.1.15,2013-07-17 02:50:00,
2013-07-16 23:00:00,76.4,74.5,30.18,North,355,0.0,0.0,94,0.00,,,0.00,Wunderground v.1.15,2013-07-17 03:00:00,
2013-07-16 23:05:00,76.4,74.5,30.18,North,355,0.0,0.0,94,0.00,,,0.00,Wunderground v.1.15,2013-07-17 03:05:00,
2013-07-16 23:15:00,76.3,74.8,30.18,North,355,0.0,0.0,95,0.00,,,0.00,Wunderground v.1.15,2013-07-17 03:15:00,
2013-07-16 23:20:00,76.2,74.7,30.18,North,355,0.0,0.0,95,0.00,,,0.00,Wunderground v.1.15,2013-07-17 03:20:00,
2013-07-16 23:25:00,76.1,74.6,30.18,North,355,0.0,0.0,95,0.00,,,0.00,Wunderground v.1.15,2013-07-17 03:25:00,
2013-07-16 23:30:00,76.0,74.8,30.18,North,355,0.0,0.0,96,0.00,,,0.00,Wunderground v.1.15,2013-07-17 03:30:00,
2013-07-16 23:40:00,75.8,74.6,30.17,North,355,0.0,0.0,96,0.00,,,0.00,Wunderground v.1.15,2013-07-17 03:40:00,
2013-07-16 23:45:00,75.7,74.5,30.17,North,355,0.0,0.0,96,0.00,,,0.00,Wunderground v.1.15,2013-07-17 03:45:00,
2013-07-16 23:55:00,75.6,74.4,30.17,North,355,0.0,0.0,96,0.00,,,0.00,Wunderground v.1.15,2013-07-17 03:55:00,